• Join FlightAware (Why Join?)
  • Login
  • US Flag 
04:59PM EST


 

Airport Tracker/Info


-or-


 

Live Flight TrackerFlight Track Log ✈ SWA127 ✈ 18-Apr-2013 ✈ KMCI - KHOU

Flight Track Log - Related Links

Times and Time Zones

All times are in EDT time to prevent confusion due to time zone crossing. See the SWA127 flight status page for this flight to view local times or setup timezone preferences in your user account.

Time Position Orientation Groundspeed Altitude Reporting Facility
EDT Latitude Longitude Course Direction KTS MPH feet Rate Location/Type
08:52AM 39.3333 -94.7167 339° North 159 183 1,900  Level Kansas City TRACON
08:53AM 39.3667 -94.7333 339° North 187 215 3,100 1,860 Climbing Kansas City TRACON
08:54AM 39.3667 -94.8000 270° West 267 307 5,100 2,700 Climbing Kansas City TRACON
08:55AM 39.3500 -94.9000 258° West 266 306 8,300 2,940 Climbing Kansas City TRACON
08:56AM 39.3314 -94.9800 253° West 252 290 11,400 2,520 Climbing Kansas City Center
08:57AM 39.3117 -95.0856 256° West 272 313 13,800 2,640 Climbing Kansas City Center
08:58AM 39.2750 -95.1783 243° Southwest 292 336 16,700 2,820 Climbing Kansas City Center
08:59AM 39.2208 -95.2650 231° Southwest 289 333 19,600 2,220 Climbing Kansas City Center
09:00AM 39.1706 -95.3483 232° Southwest 296 341 21,400 1,740 Climbing Kansas City Center
09:01AM 39.1150 -95.4375 231° Southwest 316 364 23,300 1,740 Climbing Kansas City Center
09:02AM 39.0614 -95.5256 232° Southwest 325 374 25,000 1,680 Climbing Kansas City Center
09:03AM 38.9975 -95.6303 232° Southwest 332 382 26,700 1,440 Climbing Kansas City Center
09:04AM 38.9397 -95.7222 231° Southwest 342 394 28,000 1,200 Climbing Kansas City Center
09:05AM 38.8806 -95.8172 231° Southwest 355 409 29,200 1,320 Climbing Kansas City Center
09:06AM 38.8106 -95.9281 231° Southwest 358 412 30,800 1,500 Climbing Kansas City Center
09:07AM 38.7514 -96.0231 231° Southwest 356 410 32,300 1,380 Climbing Kansas City Center
09:08AM 38.6933 -96.1153 231° Southwest 350 403 33,700 1,260 Climbing Kansas City Center
09:09AM 38.6267 -96.2208 231° Southwest 342 394 34,900 900 Climbing Kansas City Center
09:10AM 38.5697 -96.3114 231° Southwest 341 392 35,600 540 Climbing Kansas City Center
09:11AM 38.5111 -96.4031 231° Southwest 347 399 36,000 180 Climbing Kansas City Center
09:12AM 38.4517 -96.4967 231° Southwest 353 406 36,000  Level Kansas City Center
09:13AM 38.3575 -96.5781 214° Southwest 346 398 36,000  Level Kansas City Center
09:14AM 38.2667 -96.6225 201° Southwest 347 399 36,000  Level Kansas City Center
09:15AM 38.1769 -96.6667 201° Southwest 345 397 36,000  Level Kansas City Center
09:16AM 38.0856 -96.7117 201° Southwest 348 400 36,000  Level Kansas City Center
09:17AM 37.9958 -96.7544 201° Southwest 345 397 36,000  Level Kansas City Center
09:18AM 37.9053 -96.7981 201° Southwest 346 398 36,000  Level Kansas City Center
09:19AM 37.8156 -96.8417 201° Southwest 344 396 36,000  Level Kansas City Center
09:20AM 37.7256 -96.8856 201° Southwest 345 397 36,000  Level Kansas City Center
09:21AM 37.6347 -96.9283 200° South 348 400 36,000  Level Kansas City Center
09:22AM 37.5444 -96.9711 201° Southwest 345 397 36,000  Level Kansas City Center
09:23AM 37.4533 -97.0150 201° Southwest 348 400 36,000  Level Kansas City Center
09:24AM 37.3617 -97.0592 201° Southwest 350 403 36,000  Level Kansas City Center
09:25AM 37.2689 -97.1017 200° South 352 405 36,000  Level Kansas City Center
09:26AM 37.1775 -97.1461 201° Southwest 352 405 36,000  Level Kansas City Center
09:27AM 37.0686 -97.1958 200° South 347 399 36,000  Level Kansas City Center
09:28AM 36.9753 -97.2417 201° Southwest 353 406 36,000  Level Kansas City Center
09:29AM 36.8833 -97.2814 199° South 350 403 36,000  Level Kansas City Center
09:30AM 36.7989 -97.3211 201° Southwest 353 406 36,000  Level Kansas City Center
09:31AM 36.7075 -97.3656 201° Southwest 353 406 36,000  Level Kansas City Center
09:32AM 36.6053 -97.4125 200° South 355 409 36,000  Level Kansas City Center
09:33AM 36.5042 -97.4636 202° Southwest 355 409 36,000  Level Kansas City Center
09:35AM 36.4117 -97.5064 200° South 357 411 36,000  Level Kansas City Center
09:36AM 36.3189 -97.5489 200° South 356 410 36,000  Level Kansas City Center
09:37AM 36.2258 -97.5911 200° South 356 410 36,000  Level Kansas City Center
09:38AM 36.1336 -97.6336 200° South 355 409 36,000  Level Kansas City Center
09:39AM 36.0414 -97.6769 201° Southwest 356 410 36,000  Level Kansas City Center
09:40AM 35.9483 -97.7183 200° South 356 410 36,000  Level Kansas City Center
09:41AM 35.8561 -97.7644 202° Southwest 356 410 36,000  Level Fort Worth Center
09:42AM 35.7622 -97.8075 200° South 351 404 36,000  Level Fort Worth Center
09:43AM 35.6681 -97.8506 200° South 351 404 36,000  Level Fort Worth Center
09:44AM 35.5783 -97.8933 201° Southwest 351 404 36,000  Level Fort Worth Center
09:45AM 35.4844 -97.9336 199° South 351 404 36,000  Level Fort Worth Center
09:46AM 35.3903 -97.9789 201° Southwest 351 404 36,000  Level Fort Worth Center
09:47AM 35.2964 -98.0189 199° South 351 404 36,000  Level Fort Worth Center
09:48AM 35.2064 -98.0614 201° Southwest 351 404 36,000  Level Fort Worth Center
09:49AM 35.1144 -98.1014 200° South 351 404 36,000  Level Fort Worth Center
09:50AM 35.0225 -98.1411 199° South 351 404 36,000  Level Fort Worth Center
09:51AM 34.9303 -98.1833 201° Southwest 351 404 36,000  Level Fort Worth Center
09:52AM 34.8278 -98.2281 200° South 351 404 36,000  Level Fort Worth Center
09:53AM 34.7378 -98.2703 201° Southwest 356 410 36,000  Level Fort Worth Center
09:54AM 34.6458 -98.3097 199° South 350 403 36,000  Level Fort Worth Center
09:55AM 34.5536 -98.3489 199° South 350 403 36,000  Level Fort Worth Center
09:56AM 34.4617 -98.3883 199° South 350 403 36,000  Level Fort Worth Center
09:57AM 34.3717 -98.4325 202° Southwest 350 403 36,000  Level Fort Worth Center
09:58AM 34.2794 -98.4717 199° South 350 403 36,000  Level Fort Worth Center
09:59AM 34.1872 -98.5131 200° South 350 403 36,000  Level Fort Worth Center
10:00AM 34.0950 -98.5522 199° South 350 403 36,000  Level Fort Worth Center
10:01AM 34.0133 -98.5811 196° South 345 397 36,000  Level Fort Worth Center
10:02AM 33.9294 -98.6350 208° Southwest 350 403 36,000  Level Fort Worth Center
10:03AM 33.8475 -98.6939 211° Southwest 343 395 36,000  Level Fort Worth Center
10:04AM 33.7675 -98.7528 211° Southwest 348 400 36,000  Level Fort Worth Center
10:05AM 33.6856 -98.8114 211° Southwest 343 395 36,000  Level Fort Worth Center
10:06AM 33.6075 -98.8725 213° Southwest 343 395 36,000  Level Fort Worth Center
10:07AM 33.5256 -98.9283 210° Southwest 343 395 36,000  Level Fort Worth Center
10:08AM 33.4475 -98.9869 212° Southwest 338 389 36,000  Level Fort Worth Center
10:09AM 33.3697 -99.0428 211° Southwest 338 389 36,000  Level Fort Worth Center
10:10AM 33.2894 -99.1008 211° Southwest 338 389 36,000  Level Fort Worth Center
10:11AM 33.2114 -99.1589 212° Southwest 338 389 36,000  Level Fort Worth Center
10:12AM 33.1292 -99.2169 211° Southwest 343 395 36,000  Level Fort Worth Center
10:13AM 33.0492 -99.2747 211° Southwest 343 395 36,000  Level Fort Worth Center
10:14AM 32.9625 -99.3372 211° Southwest 343 395 36,000  Level Fort Worth Center
10:15AM 32.8803 -99.3972 212° Southwest 343 395 36,000  Level Fort Worth Center
10:16AM 32.8000 -99.4525 210° Southwest 343 395 36,000  Level Fort Worth Center
10:17AM 32.7178 -99.5122 211° Southwest 343 395 36,000  Level Fort Worth Center
10:18AM 32.6372 -99.5694 211° Southwest 343 395 36,000  Level Fort Worth Center
10:19AM 32.5550 -99.6242 209° Southwest 343 395 36,000  Level Fort Worth Center
10:20AM 32.4744 -99.6839 212° Southwest 343 395 36,000  Level Fort Worth Center
10:21AM 32.3919 -99.7433 211° Southwest 343 395 36,000  Level Fort Worth Center
10:22AM 32.3117 -99.8003 211° Southwest 343 395 36,000  Level Fort Worth Center
10:23AM 32.2314 -99.8569 211° Southwest 343 395 36,000  Level Fort Worth Center
10:24AM 32.1656 -99.9044 211° Southwest 343 395 36,000  Level Fort Worth Center
10:25AM 32.0747 -99.9656 210° Southwest 343 395 36,000 -60 Level Fort Worth Center
10:26AM 31.9919 -100.0244 211° Southwest 343 395 35,900 -600 Descending Fort Worth Center
10:27AM 31.9094 -100.0833 211° Southwest 343 395 34,900 -480 Descending Fort Worth Center
10:28AM 31.8289 -100.1397 211° Southwest 343 395 35,000  Climbing Fort Worth Center
10:30AM 31.6675 -100.2544 211° Southwest 337 388 34,900 -60 Descending Houston Center
10:31AM 31.5869 -100.3097 210° Southwest 336 387 34,900  Level Houston Center
10:32AM 31.5058 -100.3653 210° Southwest 338 389 34,900  Level Houston Center
10:33AM 31.4236 -100.4200 210° Southwest 339 390 34,900  Level Houston Center
10:34AM 31.2953 -100.3889 168° South 427 491 34,900  Level Houston Center
10:35AM 31.1886 -100.2997 144° Southeast 468 539 34,900  Level Houston Center
10:36AM 31.0806 -100.2117 145° Southeast 472 543 34,900  Level Houston Center
10:37AM 30.9725 -100.1228 145° Southeast 474 545 34,900  Level Houston Center
10:38AM 30.8642 -100.0336 145° Southeast 476 548 34,900  Level Houston Center
10:39AM 30.7550 -99.9458 145° Southeast 475 547 34,900  Level Houston Center
10:40AM 30.6453 -99.8561 145° Southeast 478 550 34,900  Level Houston Center
10:41AM 30.5278 -99.7164 134° Southeast 505 581 34,900  Level Houston Center
10:42AM 30.4392 -99.5861 128° Southeast 511 588 34,900 -300 Level Houston Center
10:43AM 30.3483 -99.4575 129° Southeast 512 589 34,300 -900 Descending Houston Center
10:44AM 30.2597 -99.3300 129° Southeast 507 583 33,100 -720 Descending Houston Center
10:45AM 30.1697 -99.2028 129° Southeast 508 585 32,900 -60 Descending Houston Center
10:46AM 30.0636 -99.0519 129° Southeast 504 580 33,000  Climbing Houston Center
10:47AM 29.9747 -98.9258 129° Southeast 505 581 33,000  Level Houston Center
10:48AM 29.8864 -98.8008 129° Southeast 502 578 33,000  Level Houston Center
10:49AM 29.7897 -98.6653 129° Southeast 505 581 33,000  Level Houston Center
10:50AM 29.6997 -98.5394 129° Southeast 507 583 33,000  Level Houston Center
10:51AM 29.6461 -98.3817 111° Southeast 548 631 33,000  Level Houston Center
10:52AM 29.6489 -98.1944 89° East 543 625 33,000  Level Houston Center
10:53AM 29.6475 -98.0203 90° East 544 626 33,000  Level Houston Center
10:54AM 29.6178 -97.8500 101° East 543 625 33,000 -60 Level Houston Center
10:55AM 29.5894 -97.6750 101° East 547 629 32,900 -240 Descending Houston Center
10:56AM 29.5608 -97.5053 101° East 544 626 32,600 -720 Descending Houston Center
10:58AM 29.5322 -97.3403 101° East 532 612 31,500 -1,680 Descending Houston Center
10:59AM 29.5047 -97.1769 101° East 523 602 29,100 -2,280 Descending Houston Center
11:00AM 29.4769 -97.0133 101° East 520 598 26,800 -2,340 Descending Houston Center
11:01AM 29.4494 -96.8517 101° East 509 586 24,300 -2,580 Descending Houston Center
11:02AM 29.4169 -96.6689 101° East 474 545 21,500 -2,460 Descending Houston Center
11:03AM 29.3919 -96.5303 102° East 449 517 19,300 -2,160 Descending Houston Center
11:04AM 29.3692 -96.4017 101° East 420 483 17,100 -2,040 Descending Houston Center
11:05AM 29.3467 -96.2814 102° East 391 450 15,100 -2,040 Descending Houston Center
11:06AM 29.3281 -96.1767 101° East 367 422 13,400 -1,620 Descending Houston Center
11:07AM 29.3097 -96.0589 100° East 348 400 12,000 -660 Descending Houston Center
11:08AM 29.3650 -95.9711 54° Northeast 309 356 12,000 -540 Level Houston Center
11:09AM 29.4286 -95.9064 42° Northeast 267 307 10,900 -1,140 Descending Houston Center
11:10AM 29.4806 -95.8494 44° Northeast 272 313 9,600 -1,380 Descending Houston Center
11:11AM 29.5322 -95.7961 42° Northeast 266 306 8,300 -900 Descending Houston Center
11:12AM 29.5742 -95.7264 55° Northeast 262 302 8,000 -180 Descending Houston Center
11:13AM 29.6064 -95.6628 60° Northeast 255 293 8,000  Level Houston Center
11:13AM 29.6189 -95.6383 60° Northeast 257 296 8,000  Level Houston Center
11:14AM 29.6450 -95.5789 63° Northeast 253 291 8,000 -120 Level Houston Center
11:14AM 29.6461 -95.5653 85° East 259 298 7,900 -1,080 Descending Houston Center
11:15AM 29.6492 -95.5086 86° East 242 278 7,000 -1,200 Descending Houston Center
11:15AM 29.6511 -95.4881 84° East 247 284 6,700 -1,200 Descending Houston Center
11:16AM 29.6550 -95.4333 85° East 232 267 5,800 -1,260 Descending Houston Center
11:16AM 29.6572 -95.4153 82° East 235 270 5,400 -840 Descending Houston Center
11:17AM 29.6981 -95.3994 19° North 253 291 5,000 -540 Descending Houston Center
11:17AM 29.7064 -95.4142 303° West 234 269 4,900 -1,020 Descending Houston Center
11:18AM 29.7267 -95.4842 288° West 197 227 3,600 -1,140 Descending Houston Center
11:19AM 29.7542 -95.4864 356° North 222 255 3,200 -720 Descending Houston Center
11:19AM 29.7822 -95.4653 33° Northeast 223 257 2,900 -1,020 Descending Houston Center
11:20AM 29.7856 -95.4369 82° East 170 196 2,200 -900 Descending Houston Center
11:20AM 29.7703 -95.4231 142° Southeast 189 217 2,000 -240 Descending Houston Center
11:21AM 29.7511 -95.4050 141° Southeast 159 183 2,000 -120 Level Houston Center
11:21AM 29.7375 -95.3906 137° Southeast 167 192 1,900  Descending Houston Center
11:22AM 29.7206 -95.3703 134° Southeast 158 182 2,000 -240 Climbing Houston Center
11:22AM 29.7092 -95.3556 132° Southeast 157 181 1,700 -720 Descending Houston Center
11:23AM 29.6967 -95.3394 132° Southeast 119 137 1,300 -720 Descending Houston Center
11:23AM 29.6856 -95.3267 135° Southeast 142 163 1,000 -600 Descending Houston Center
11:24AM 29.6711 -95.3111 137° Southeast 128 147 700 -780 Descending Houston Center
11:24AM 29.6556 -95.2919 133° Southeast 131 151 200 -840 Descending Houston Center